Back to top

Sheridan, WY weather

Sheridan County Airport, Sheridan, WY: 6/04/2020 05:53
Visibility10 statute milessun with a few clouds
View 7-Day Forecast
Area Summary
Sky/CloudsFew at 11000ft
Weather [last 24 hours]None [rain began 19:14 ended 19:37 ]
Pressure29.86 in.Hg (1011 hPa)
3-hour Pressure Tendency0.03543 in.Hg (1.2 hPa) Decreasing, then steady, or decreasing then decreasing more slowly
Dew Point46 °F (7.8 °C)
Relative Humidity86.2 %
Last 24-Hour Precip.Trace
Reading TimePrecipitation
6-hr ending 6/3@23:53Trace
Temperature50 °F (10 °C)red thermometer
Reading TimeMinimum to Maximum Temperature
6-hr ending 6/4@05:5348 °F to 57 °F (8.9 °C to 13.9 °C)
6-hr ending 6/3@23:5357 °F to 82 °F (13.9 °C to 27.8 °C)
6-hr ending 6/3@17:5379 °F to 84 °F (26.1 °C to 28.9 °C)
6-hr ending 6/3@11:5353.1 °F to 80.1 °F (11.7 °C to 26.7 °C)
24-hr ending 6/4@00:5348 °F to 84 °F (8.9 °C to 28.9 °C)
Wind3.45 MPH (3 KT) green arrow pointing 337.5 degrees
Wind FromNorth/Northwest (340 Degrees)
Rolling 24-hr Peak Wind40.3 MPH (35 KT) on 6/3@19:11
Rolling 24-hr Peak Wind FromNorthwest (320 Degrees)
Twilight Begins04:45Sunshine Yesterday
Sunrise05:21N/A
Sunset20:52
Twilight Ends21:29
METARKSHR 041153Z AUTO 34003KT 10SM FEW110 10/08 A2986 RMK AO2 SLP083 T01000078 10139 20089 56012
Tags: